sensor_id;sensor_type;location;lat;lon;timestamp;P1;durP1;ratioP1;P2;durP2;ratioP2
77359;SDS011;66426;51.454;7.266;2023-03-13T00:00:34;12.18;;;3.30;;
77359;SDS011;66426;51.454;7.266;2023-03-13T00:01:35;18.05;;;2.80;;
77359;SDS011;66426;51.454;7.266;2023-03-13T00:02:36;10.48;;;2.50;;
77359;SDS011;66426;51.454;7.266;2023-03-13T00:03:37;12.98;;;2.40;;
77359;SDS011;66426;51.454;7.266;2023-03-13T00:04:38;11.82;;;2.42;;
77359;SDS011;66426;51.454;7.266;2023-03-13T00:05:39;10.10;;;2.38;;
77359;SDS011;66426;51.454;7.266;2023-03-13T00:06:39;15.23;;;3.00;;
77359;SDS011;66426;51.454;7.266;2023-03-13T00:07:40;9.43;;;2.70;;
77359;SDS011;66426;51.454;7.266;2023-03-13T00:08:41;13.32;;;2.65;;
77359;SDS011;66426;51.454;7.266;2023-03-13T00:09:42;9.88;;;2.10;;
77359;SDS011;66426;51.454;7.266;2023-03-13T00:10:43;15.07;;;2.53;;
77359;SDS011;66426;51.454;7.266;2023-03-13T00:11:44;12.30;;;2.25;;
77359;SDS011;66426;51.454;7.266;2023-03-13T00:12:45;12.15;;;2.42;;
77359;SDS011;66426;51.454;7.266;2023-03-13T00:13:47;10.10;;;2.25;;
77359;SDS011;66426;51.454;7.266;2023-03-13T00:14:48;10.00;;;2.08;;
77359;SDS011;66426;51.454;7.266;2023-03-13T00:15:48;13.70;;;3.30;;
77359;SDS011;66426;51.454;7.266;2023-03-13T00:16:49;12.55;;;2.50;;
77359;SDS011;66426;51.454;7.266;2023-03-13T00:17:50;14.80;;;3.05;;
77359;SDS011;66426;51.454;7.266;2023-03-13T00:18:51;16.60;;;2.83;;
77359;SDS011;66426;51.454;7.266;2023-03-13T00:19:52;12.82;;;2.35;;
77359;SDS011;66426;51.454;7.266;2023-03-13T00:20:56;11.50;;;2.70;;
77359;SDS011;66426;51.454;7.266;2023-03-13T00:21:57;14.10;;;2.78;;
77359;SDS011;66426;51.454;7.266;2023-03-13T00:22:57;9.30;;;2.50;;
77359;SDS011;66426;51.454;7.266;2023-03-13T00:23:59;9.52;;;2.58;;
77359;SDS011;66426;51.454;7.266;2023-03-13T00:24:59;11.40;;;2.20;;
77359;SDS011;66426;51.454;7.266;2023-03-13T00:26:01;12.07;;;2.55;;
77359;SDS011;66426;51.454;7.266;2023-03-13T00:27:02;11.80;;;2.53;;
77359;SDS011;66426;51.454;7.266;2023-03-13T00:28:04;10.13;;;2.50;;
77359;SDS011;66426;51.454;7.266;2023-03-13T00:29:06;12.88;;;2.80;;
77359;SDS011;66426;51.454;7.266;2023-03-13T00:30:08;9.98;;;2.30;;
77359;SDS011;66426;51.454;7.266;2023-03-13T00:31:09;10.80;;;2.78;;
77359;SDS011;66426;51.454;7.266;2023-03-13T00:32:10;11.80;;;2.75;;
77359;SDS011;66426;51.454;7.266;2023-03-13T00:33:11;13.45;;;2.30;;
77359;SDS011;66426;51.454;7.266;2023-03-13T00:34:11;21.35;;;3.40;;
77359;SDS011;66426;51.454;7.266;2023-03-13T00:35:12;14.07;;;2.60;;
77359;SDS011;66426;51.454;7.266;2023-03-13T00:36:13;12.52;;;2.95;;
77359;SDS011;66426;51.454;7.266;2023-03-13T00:37:14;14.70;;;2.67;;
77359;SDS011;66426;51.454;7.266;2023-03-13T00:38:15;12.95;;;2.58;;
77359;SDS011;66426;51.454;7.266;2023-03-13T00:39:15;17.35;;;2.28;;
77359;SDS011;66426;51.454;7.266;2023-03-13T00:40:16;9.00;;;2.40;;
77359;SDS011;66426;51.454;7.266;2023-03-13T00:41:18;8.50;;;2.15;;
77359;SDS011;66426;51.454;7.266;2023-03-13T00:42:19;14.88;;;2.33;;
77359;SDS011;66426;51.454;7.266;2023-03-13T00:43:21;11.32;;;2.60;;
77359;SDS011;66426;51.454;7.266;2023-03-13T00:44:23;12.65;;;2.78;;
77359;SDS011;66426;51.454;7.266;2023-03-13T00:45:24;13.45;;;2.63;;
77359;SDS011;66426;51.454;7.266;2023-03-13T00:46:26;12.70;;;2.50;;
77359;SDS011;66426;51.454;7.266;2023-03-13T00:47:27;13.73;;;2.65;;
77359;SDS011;66426;51.454;7.266;2023-03-13T00:48:28;11.52;;;2.70;;
77359;SDS011;66426;51.454;7.266;2023-03-13T00:49:29;10.18;;;2.53;;
77359;SDS011;66426;51.454;7.266;2023-03-13T00:50:30;15.90;;;2.65;;
77359;SDS011;66426;51.454;7.266;2023-03-13T00:51:30;13.35;;;2.28;;
77359;SDS011;66426;51.454;7.266;2023-03-13T00:52:31;14.68;;;2.33;;
77359;SDS011;66426;51.454;7.266;2023-03-13T00:53:32;10.65;;;2.33;;
77359;SDS011;66426;51.454;7.266;2023-03-13T00:54:33;12.77;;;2.55;;
77359;SDS011;66426;51.454;7.266;2023-03-13T00:55:34;10.98;;;3.08;;
77359;SDS011;66426;51.454;7.266;2023-03-13T00:56:34;10.05;;;2.47;;
77359;SDS011;66426;51.454;7.266;2023-03-13T00:57:35;10.48;;;2.42;;
77359;SDS011;66426;51.454;7.266;2023-03-13T00:58:37;11.45;;;3.22;;
77359;SDS011;66426;51.454;7.266;2023-03-13T00:59:39;16.40;;;3.13;;
77359;SDS011;66426;51.454;7.266;2023-03-13T01:00:40;13.02;;;2.75;;
77359;SDS011;66426;51.454;7.266;2023-03-13T01:01:43;10.23;;;2.28;;
77359;SDS011;66426;51.454;7.266;2023-03-13T01:02:44;10.13;;;3.10;;
77359;SDS011;66426;51.454;7.266;2023-03-13T01:03:45;11.30;;;2.47;;
77359;SDS011;66426;51.454;7.266;2023-03-13T01:04:46;11.00;;;2.33;;
77359;SDS011;66426;51.454;7.266;2023-03-13T01:05:54;16.77;;;3.15;;
77359;SDS011;66426;51.454;7.266;2023-03-13T01:06:55;12.23;;;2.90;;
77359;SDS011;66426;51.454;7.266;2023-03-13T01:07:56;9.15;;;2.10;;
77359;SDS011;66426;51.454;7.266;2023-03-13T01:08:56;17.40;;;2.80;;
77359;SDS011;66426;51.454;7.266;2023-03-13T01:09:57;8.82;;;2.30;;
77359;SDS011;66426;51.454;7.266;2023-03-13T01:10:58;11.85;;;2.75;;
77359;SDS011;66426;51.454;7.266;2023-03-13T01:11:59;8.30;;;2.10;;
77359;SDS011;66426;51.454;7.266;2023-03-13T01:13:00;12.68;;;2.78;;
77359;SDS011;66426;51.454;7.266;2023-03-13T01:14:01;10.80;;;2.33;;
77359;SDS011;66426;51.454;7.266;2023-03-13T01:15:04;14.98;;;2.58;;
77359;SDS011;66426;51.454;7.266;2023-03-13T01:16:06;14.15;;;2.53;;
77359;SDS011;66426;51.454;7.266;2023-03-13T01:17:07;15.40;;;2.85;;
77359;SDS011;66426;51.454;7.266;2023-03-13T01:18:07;12.15;;;2.55;;
77359;SDS011;66426;51.454;7.266;2023-03-13T01:19:09;13.70;;;2.67;;
77359;SDS011;66426;51.454;7.266;2023-03-13T01:20:10;9.43;;;2.35;;
77359;SDS011;66426;51.454;7.266;2023-03-13T01:21:11;12.07;;;2.22;;
77359;SDS011;66426;51.454;7.266;2023-03-13T01:22:13;11.77;;;2.30;;
77359;SDS011;66426;51.454;7.266;2023-03-13T01:23:13;11.55;;;2.60;;
77359;SDS011;66426;51.454;7.266;2023-03-13T01:24:15;6.45;;;1.90;;
77359;SDS011;66426;51.454;7.266;2023-03-13T01:25:16;10.05;;;2.65;;
77359;SDS011;66426;51.454;7.266;2023-03-13T01:26:17;11.27;;;2.38;;
77359;SDS011;66426;51.454;7.266;2023-03-13T01:27:18;8.93;;;2.45;;
77359;SDS011;66426;51.454;7.266;2023-03-13T01:28:18;5.07;;;1.77;;
77359;SDS011;66426;51.454;7.266;2023-03-13T01:29:19;9.40;;;2.10;;
77359;SDS011;66426;51.454;7.266;2023-03-13T01:30:21;16.17;;;2.83;;
77359;SDS011;66426;51.454;7.266;2023-03-13T01:31:22;10.88;;;2.70;;
77359;SDS011;66426;51.454;7.266;2023-03-13T01:32:23;9.32;;;2.60;;
77359;SDS011;66426;51.454;7.266;2023-03-13T01:33:24;13.77;;;2.42;;
77359;SDS011;66426;51.454;7.266;2023-03-13T01:34:25;12.52;;;2.80;;
77359;SDS011;66426;51.454;7.266;2023-03-13T01:35:25;13.15;;;2.60;;
77359;SDS011;66426;51.454;7.266;2023-03-13T01:36:26;14.88;;;3.28;;
77359;SDS011;66426;51.454;7.266;2023-03-13T01:37:27;11.80;;;3.22;;
77359;SDS011;66426;51.454;7.266;2023-03-13T01:38:28;11.20;;;2.58;;
77359;SDS011;66426;51.454;7.266;2023-03-13T01:39:28;12.25;;;2.17;;
77359;SDS011;66426;51.454;7.266;2023-03-13T01:40:29;11.25;;;2.30;;
77359;SDS011;66426;51.454;7.266;2023-03-13T01:41:30;14.90;;;2.63;;
77359;SDS011;66426;51.454;7.266;2023-03-13T01:42:41;14.20;;;2.10;;
77359;SDS011;66426;51.454;7.266;2023-03-13T01:43:47;10.55;;;2.30;;
77359;SDS011;66426;51.454;7.266;2023-03-13T01:44:49;12.85;;;2.50;;
77359;SDS011;66426;51.454;7.266;2023-03-13T01:45:59;15.98;;;2.70;;
77359;SDS011;66426;51.454;7.266;2023-03-13T01:46:59;11.50;;;2.45;;
77359;SDS011;66426;51.454;7.266;2023-03-13T01:48:00;13.00;;;2.55;;
77359;SDS011;66426;51.454;7.266;2023-03-13T01:49:02;8.70;;;2.42;;
77359;SDS011;66426;51.454;7.266;2023-03-13T01:50:04;15.80;;;2.75;;
77359;SDS011;66426;51.454;7.266;2023-03-13T01:51:06;10.35;;;2.10;;
77359;SDS011;66426;51.454;7.266;2023-03-13T01:52:07;9.45;;;2.10;;
77359;SDS011;66426;51.454;7.266;2023-03-13T01:53:10;12.98;;;2.40;;
77359;SDS011;66426;51.454;7.266;2023-03-13T01:54:12;10.60;;;2.70;;
77359;SDS011;66426;51.454;7.266;2023-03-13T01:55:13;18.85;;;2.53;;
77359;SDS011;66426;51.454;7.266;2023-03-13T01:56:17;15.27;;;2.40;;
77359;SDS011;66426;51.454;7.266;2023-03-13T01:57:19;16.08;;;2.95;;
77359;SDS011;66426;51.454;7.266;2023-03-13T01:58:23;7.45;;;2.42;;
77359;SDS011;66426;51.454;7.266;2023-03-13T01:59:25;13.50;;;2.40;;
77359;SDS011;66426;51.454;7.266;2023-03-13T02:00:27;15.10;;;2.40;;
77359;SDS011;66426;51.454;7.266;2023-03-13T02:01:30;12.30;;;2.30;;
77359;SDS011;66426;51.454;7.266;2023-03-13T02:02:33;13.88;;;2.60;;
77359;SDS011;66426;51.454;7.266;2023-03-13T02:03:34;17.27;;;2.95;;
77359;SDS011;66426;51.454;7.266;2023-03-13T02:04:37;9.73;;;2.15;;
77359;SDS011;66426;51.454;7.266;2023-03-13T02:05:38;13.90;;;2.22;;
77359;SDS011;66426;51.454;7.266;2023-03-13T02:06:40;15.52;;;3.25;;
77359;SDS011;66426;51.454;7.266;2023-03-13T02:07:44;12.02;;;2.58;;
77359;SDS011;66426;51.454;7.266;2023-03-13T02:08:48;11.73;;;2.95;;
77359;SDS011;66426;51.454;7.266;2023-03-13T02:09:50;11.15;;;2.13;;
77359;SDS011;66426;51.454;7.266;2023-03-13T02:10:53;11.73;;;2.20;;
77359;SDS011;66426;51.454;7.266;2023-03-13T02:11:56;10.75;;;2.08;;
77359;SDS011;66426;51.454;7.266;2023-03-13T02:12:58;13.27;;;2.63;;
77359;SDS011;66426;51.454;7.266;2023-03-13T02:14:00;10.15;;;2.22;;
77359;SDS011;66426;51.454;7.266;2023-03-13T02:15:04;12.57;;;2.58;;
77359;SDS011;66426;51.454;7.266;2023-03-13T02:16:05;9.40;;;2.97;;
77359;SDS011;66426;51.454;7.266;2023-03-13T02:17:08;11.40;;;2.15;;
77359;SDS011;66426;51.454;7.266;2023-03-13T02:18:09;11.70;;;2.67;;
77359;SDS011;66426;51.454;7.266;2023-03-13T02:19:12;15.73;;;2.90;;
77359;SDS011;66426;51.454;7.266;2023-03-13T02:20:16;19.20;;;3.00;;
77359;SDS011;66426;51.454;7.266;2023-03-13T02:21:19;9.90;;;2.55;;
77359;SDS011;66426;51.454;7.266;2023-03-13T02:22:23;13.13;;;2.75;;
77359;SDS011;66426;51.454;7.266;2023-03-13T02:23:28;12.05;;;2.40;;
77359;SDS011;66426;51.454;7.266;2023-03-13T02:24:31;11.85;;;2.42;;
77359;SDS011;66426;51.454;7.266;2023-03-13T02:25:38;7.75;;;2.28;;
77359;SDS011;66426;51.454;7.266;2023-03-13T02:26:41;11.95;;;2.85;;
77359;SDS011;66426;51.454;7.266;2023-03-13T02:27:42;12.57;;;3.08;;
77359;SDS011;66426;51.454;7.266;2023-03-13T02:28:43;6.45;;;2.20;;
77359;SDS011;66426;51.454;7.266;2023-03-13T02:29:43;13.00;;;2.85;;
77359;SDS011;66426;51.454;7.266;2023-03-13T02:30:45;12.18;;;2.72;;
77359;SDS011;66426;51.454;7.266;2023-03-13T02:31:46;11.27;;;2.25;;
77359;SDS011;66426;51.454;7.266;2023-03-13T02:32:47;11.13;;;2.40;;
77359;SDS011;66426;51.454;7.266;2023-03-13T02:33:48;11.52;;;2.40;;
77359;SDS011;66426;51.454;7.266;2023-03-13T02:34:50;10.80;;;2.55;;
77359;SDS011;66426;51.454;7.266;2023-03-13T02:35:52;6.03;;;2.22;;
77359;SDS011;66426;51.454;7.266;2023-03-13T02:36:54;15.30;;;3.05;;
77359;SDS011;66426;51.454;7.266;2023-03-13T02:37:55;13.68;;;2.60;;
77359;SDS011;66426;51.454;7.266;2023-03-13T02:38:58;11.90;;;2.20;;
77359;SDS011;66426;51.454;7.266;2023-03-13T02:40:02;12.55;;;2.40;;
77359;SDS011;66426;51.454;7.266;2023-03-13T02:41:06;14.35;;;2.97;;
77359;SDS011;66426;51.454;7.266;2023-03-13T02:42:08;8.20;;;2.38;;
77359;SDS011;66426;51.454;7.266;2023-03-13T02:43:10;13.02;;;2.88;;
77359;SDS011;66426;51.454;7.266;2023-03-13T02:44:11;8.30;;;2.30;;
77359;SDS011;66426;51.454;7.266;2023-03-13T02:45:12;10.38;;;2.47;;
77359;SDS011;66426;51.454;7.266;2023-03-13T02:46:14;11.18;;;2.47;;
77359;SDS011;66426;51.454;7.266;2023-03-13T02:47:17;12.18;;;2.60;;
77359;SDS011;66426;51.454;7.266;2023-03-13T02:48:26;12.07;;;2.40;;
77359;SDS011;66426;51.454;7.266;2023-03-13T02:49:28;10.75;;;2.20;;
77359;SDS011;66426;51.454;7.266;2023-03-13T02:50:29;9.00;;;2.30;;
77359;SDS011;66426;51.454;7.266;2023-03-13T02:51:30;14.55;;;2.45;;
77359;SDS011;66426;51.454;7.266;2023-03-13T02:52:33;15.98;;;3.13;;
77359;SDS011;66426;51.454;7.266;2023-03-13T02:53:37;7.90;;;2.47;;
77359;SDS011;66426;51.454;7.266;2023-03-13T02:54:38;7.50;;;2.72;;
77359;SDS011;66426;51.454;7.266;2023-03-13T02:55:39;12.88;;;2.47;;
77359;SDS011;66426;51.454;7.266;2023-03-13T02:56:42;10.70;;;2.85;;
77359;SDS011;66426;51.454;7.266;2023-03-13T02:57:43;11.18;;;2.28;;
77359;SDS011;66426;51.454;7.266;2023-03-13T02:58:43;8.30;;;2.30;;
77359;SDS011;66426;51.454;7.266;2023-03-13T02:59:44;7.90;;;2.40;;
77359;SDS011;66426;51.454;7.266;2023-03-13T03:00:45;9.48;;;2.78;;
77359;SDS011;66426;51.454;7.266;2023-03-13T03:01:46;7.28;;;2.20;;
77359;SDS011;66426;51.454;7.266;2023-03-13T03:02:46;9.15;;;2.08;;
77359;SDS011;66426;51.454;7.266;2023-03-13T03:03:47;8.82;;;2.15;;
77359;SDS011;66426;51.454;7.266;2023-03-13T03:04:48;6.90;;;2.35;;
77359;SDS011;66426;51.454;7.266;2023-03-13T03:05:48;11.15;;;2.63;;
77359;SDS011;66426;51.454;7.266;2023-03-13T03:06:49;9.35;;;2.50;;
77359;SDS011;66426;51.454;7.266;2023-03-13T03:07:50;9.18;;;2.72;;
77359;SDS011;66426;51.454;7.266;2023-03-13T03:08:51;13.10;;;2.10;;
77359;SDS011;66426;51.454;7.266;2023-03-13T03:09:52;7.70;;;2.20;;
77359;SDS011;66426;51.454;7.266;2023-03-13T03:10:53;7.55;;;1.98;;
77359;SDS011;66426;51.454;7.266;2023-03-13T03:11:55;8.23;;;2.38;;
77359;SDS011;66426;51.454;7.266;2023-03-13T03:12:55;8.90;;;2.50;;
77359;SDS011;66426;51.454;7.266;2023-03-13T03:13:56;11.30;;;2.60;;
77359;SDS011;66426;51.454;7.266;2023-03-13T03:14:57;10.80;;;2.33;;
77359;SDS011;66426;51.454;7.266;2023-03-13T03:15:57;8.77;;;2.20;;
77359;SDS011;66426;51.454;7.266;2023-03-13T03:16:58;9.52;;;2.63;;
77359;SDS011;66426;51.454;7.266;2023-03-13T03:17:59;11.75;;;2.08;;
77359;SDS011;66426;51.454;7.266;2023-03-13T03:19:00;8.27;;;2.13;;
77359;SDS011;66426;51.454;7.266;2023-03-13T03:20:00;11.25;;;2.20;;
77359;SDS011;66426;51.454;7.266;2023-03-13T03:21:01;8.65;;;1.88;;
77359;SDS011;66426;51.454;7.266;2023-03-13T03:22:04;7.97;;;2.08;;
77359;SDS011;66426;51.454;7.266;2023-03-13T03:23:05;6.57;;;1.77;;
77359;SDS011;66426;51.454;7.266;2023-03-13T03:24:06;7.25;;;2.00;;
77359;SDS011;66426;51.454;7.266;2023-03-13T03:25:07;6.90;;;1.77;;
77359;SDS011;66426;51.454;7.266;2023-03-13T03:26:08;10.10;;;2.10;;
77359;SDS011;66426;51.454;7.266;2023-03-13T03:27:10;9.38;;;2.28;;
77359;SDS011;66426;51.454;7.266;2023-03-13T03:28:11;9.00;;;2.15;;
77359;SDS011;66426;51.454;7.266;2023-03-13T03:29:12;9.30;;;2.15;;
77359;SDS011;66426;51.454;7.266;2023-03-13T03:30:13;5.43;;;2.17;;
77359;SDS011;66426;51.454;7.266;2023-03-13T03:31:14;8.30;;;2.03;;
77359;SDS011;66426;51.454;7.266;2023-03-13T03:32:14;4.38;;;1.73;;
77359;SDS011;66426;51.454;7.266;2023-03-13T03:33:15;9.63;;;2.10;;
77359;SDS011;66426;51.454;7.266;2023-03-13T03:34:16;4.68;;;1.88;;
77359;SDS011;66426;51.454;7.266;2023-03-13T03:35:16;9.15;;;2.42;;
77359;SDS011;66426;51.454;7.266;2023-03-13T03:36:18;12.73;;;2.00;;
77359;SDS011;66426;51.454;7.266;2023-03-13T03:37:19;6.10;;;1.77;;
77359;SDS011;66426;51.454;7.266;2023-03-13T03:38:20;6.82;;;1.95;;
77359;SDS011;66426;51.454;7.266;2023-03-13T03:39:20;4.30;;;1.60;;
77359;SDS011;66426;51.454;7.266;2023-03-13T03:40:21;6.60;;;2.05;;
77359;SDS011;66426;51.454;7.266;2023-03-13T03:41:22;10.00;;;2.10;;
77359;SDS011;66426;51.454;7.266;2023-03-13T03:42:24;6.78;;;2.10;;
77359;SDS011;66426;51.454;7.266;2023-03-13T03:43:25;6.20;;;1.65;;
77359;SDS011;66426;51.454;7.266;2023-03-13T03:44:26;5.35;;;1.88;;
77359;SDS011;66426;51.454;7.266;2023-03-13T03:45:26;9.02;;;2.55;;
77359;SDS011;66426;51.454;7.266;2023-03-13T03:46:27;11.02;;;2.38;;
77359;SDS011;66426;51.454;7.266;2023-03-13T03:47:28;5.43;;;1.83;;
77359;SDS011;66426;51.454;7.266;2023-03-13T03:48:29;5.68;;;1.65;;
77359;SDS011;66426;51.454;7.266;2023-03-13T03:49:29;4.32;;;2.05;;
77359;SDS011;66426;51.454;7.266;2023-03-13T03:50:30;4.80;;;1.63;;
77359;SDS011;66426;51.454;7.266;2023-03-13T03:51:31;5.85;;;1.88;;
77359;SDS011;66426;51.454;7.266;2023-03-13T03:52:31;5.40;;;1.80;;
77359;SDS011;66426;51.454;7.266;2023-03-13T03:53:32;5.75;;;1.80;;
77359;SDS011;66426;51.454;7.266;2023-03-13T03:54:33;6.72;;;1.70;;
77359;SDS011;66426;51.454;7.266;2023-03-13T03:55:34;4.65;;;1.73;;
77359;SDS011;66426;51.454;7.266;2023-03-13T03:56:35;6.00;;;1.77;;
77359;SDS011;66426;51.454;7.266;2023-03-13T03:57:37;3.53;;;1.50;;
77359;SDS011;66426;51.454;7.266;2023-03-13T03:58:38;5.03;;;1.80;;
77359;SDS011;66426;51.454;7.266;2023-03-13T03:59:38;6.43;;;1.88;;
77359;SDS011;66426;51.454;7.266;2023-03-13T04:00:41;4.25;;;1.80;;
77359;SDS011;66426;51.454;7.266;2023-03-13T04:01:42;2.78;;;1.55;;
77359;SDS011;66426;51.454;7.266;2023-03-13T04:02:43;5.15;;;1.83;;
77359;SDS011;66426;51.454;7.266;2023-03-13T04:03:44;4.95;;;1.63;;
77359;SDS011;66426;51.454;7.266;2023-03-13T04:04:45;7.40;;;1.80;;
77359;SDS011;66426;51.454;7.266;2023-03-13T04:05:46;6.35;;;1.77;;
77359;SDS011;66426;51.454;7.266;2023-03-13T04:06:46;3.40;;;1.63;;
77359;SDS011;66426;51.454;7.266;2023-03-13T04:07:47;4.10;;;1.90;;
77359;SDS011;66426;51.454;7.266;2023-03-13T04:08:48;3.15;;;1.35;;
77359;SDS011;66426;51.454;7.266;2023-03-13T04:09:49;5.18;;;1.40;;
77359;SDS011;66426;51.454;7.266;2023-03-13T04:10:49;5.30;;;1.48;;
77359;SDS011;66426;51.454;7.266;2023-03-13T04:11:50;2.22;;;1.20;;
77359;SDS011;66426;51.454;7.266;2023-03-13T04:12:52;3.15;;;1.40;;
77359;SDS011;66426;51.454;7.266;2023-03-13T04:13:53;3.40;;;1.88;;
77359;SDS011;66426;51.454;7.266;2023-03-13T04:14:54;3.03;;;1.65;;
77359;SDS011;66426;51.454;7.266;2023-03-13T04:15:54;2.10;;;1.40;;
77359;SDS011;66426;51.454;7.266;2023-03-13T04:16:55;3.70;;;1.52;;
77359;SDS011;66426;51.454;7.266;2023-03-13T04:17:56;5.40;;;1.70;;
77359;SDS011;66426;51.454;7.266;2023-03-13T04:18:56;2.08;;;1.20;;
77359;SDS011;66426;51.454;7.266;2023-03-13T04:19:57;4.13;;;1.70;;
77359;SDS011;66426;51.454;7.266;2023-03-13T04:21:01;3.33;;;1.50;;
77359;SDS011;66426;51.454;7.266;2023-03-13T04:22:02;4.25;;;1.50;;
77359;SDS011;66426;51.454;7.266;2023-03-13T04:23:02;3.05;;;1.20;;
77359;SDS011;66426;51.454;7.266;2023-03-13T04:24:03;3.40;;;1.70;;
77359;SDS011;66426;51.454;7.266;2023-03-13T04:25:04;2.00;;;1.40;;
77359;SDS011;66426;51.454;7.266;2023-03-13T04:26:05;2.40;;;1.33;;
77359;SDS011;66426;51.454;7.266;2023-03-13T04:27:06;2.13;;;1.40;;
77359;SDS011;66426;51.454;7.266;2023-03-13T04:28:08;2.70;;;1.50;;
77359;SDS011;66426;51.454;7.266;2023-03-13T04:29:08;6.10;;;2.13;;
77359;SDS011;66426;51.454;7.266;2023-03-13T04:30:09;2.85;;;1.60;;
77359;SDS011;66426;51.454;7.266;2023-03-13T04:31:10;2.45;;;1.48;;
77359;SDS011;66426;51.454;7.266;2023-03-13T04:32:11;2.30;;;1.40;;
77359;SDS011;66426;51.454;7.266;2023-03-13T04:33:12;3.72;;;1.70;;
77359;SDS011;66426;51.454;7.266;2023-03-13T04:34:12;3.47;;;1.27;;
77359;SDS011;66426;51.454;7.266;2023-03-13T04:35:13;2.63;;;1.60;;
77359;SDS011;66426;51.454;7.266;2023-03-13T04:36:14;7.43;;;1.65;;
77359;SDS011;66426;51.454;7.266;2023-03-13T04:37:14;3.63;;;1.60;;
77359;SDS011;66426;51.454;7.266;2023-03-13T04:38:15;3.45;;;1.55;;
77359;SDS011;66426;51.454;7.266;2023-03-13T04:39:16;5.18;;;1.65;;
77359;SDS011;66426;51.454;7.266;2023-03-13T04:40:17;5.38;;;1.40;;
77359;SDS011;66426;51.454;7.266;2023-03-13T04:41:17;3.53;;;1.70;;
77359;SDS011;66426;51.454;7.266;2023-03-13T04:42:18;2.22;;;1.77;;
77359;SDS011;66426;51.454;7.266;2023-03-13T04:43:20;4.60;;;1.80;;
77359;SDS011;66426;51.454;7.266;2023-03-13T04:44:21;5.55;;;1.65;;
77359;SDS011;66426;51.454;7.266;2023-03-13T04:45:22;4.10;;;1.40;;
77359;SDS011;66426;51.454;7.266;2023-03-13T04:46:23;4.38;;;1.77;;
77359;SDS011;66426;51.454;7.266;2023-03-13T04:47:23;2.22;;;1.60;;
77359;SDS011;66426;51.454;7.266;2023-03-13T04:48:24;3.63;;;1.70;;
77359;SDS011;66426;51.454;7.266;2023-03-13T04:49:25;4.80;;;1.67;;
77359;SDS011;66426;51.454;7.266;2023-03-13T04:50:25;2.65;;;1.60;;
77359;SDS011;66426;51.454;7.266;2023-03-13T04:51:26;3.50;;;1.90;;
77359;SDS011;66426;51.454;7.266;2023-03-13T04:52:27;4.32;;;1.80;;
77359;SDS011;66426;51.454;7.266;2023-03-13T04:53:28;4.53;;;2.05;;
77359;SDS011;66426;51.454;7.266;2023-03-13T04:54:29;3.15;;;1.80;;
77359;SDS011;66426;51.454;7.266;2023-03-13T04:55:29;2.08;;;1.50;;
77359;SDS011;66426;51.454;7.266;2023-03-13T04:56:30;1.98;;;1.70;;
77359;SDS011;66426;51.454;7.266;2023-03-13T04:57:31;1.77;;;1.50;;
77359;SDS011;66426;51.454;7.266;2023-03-13T04:58:33;4.05;;;1.70;;
77359;SDS011;66426;51.454;7.266;2023-03-13T04:59:33;1.50;;;1.40;;
77359;SDS011;66426;51.454;7.266;2023-03-13T05:00:34;4.80;;;1.60;;
77359;SDS011;66426;51.454;7.266;2023-03-13T05:01:35;2.05;;;1.58;;
77359;SDS011;66426;51.454;7.266;2023-03-13T05:02:36;3.70;;;1.80;;
77359;SDS011;66426;51.454;7.266;2023-03-13T05:03:37;4.18;;;1.50;;
77359;SDS011;66426;51.454;7.266;2023-03-13T05:04:37;2.90;;;1.55;;
77359;SDS011;66426;51.454;7.266;2023-03-13T05:05:38;4.47;;;1.50;;
77359;SDS011;66426;51.454;7.266;2023-03-13T05:06:39;2.75;;;1.50;;
77359;SDS011;66426;51.454;7.266;2023-03-13T05:07:39;2.05;;;1.75;;
77359;SDS011;66426;51.454;7.266;2023-03-13T05:08:40;2.60;;;1.50;;
77359;SDS011;66426;51.454;7.266;2023-03-13T05:09:41;4.97;;;1.70;;
77359;SDS011;66426;51.454;7.266;2023-03-13T05:10:41;2.47;;;1.67;;
77359;SDS011;66426;51.454;7.266;2023-03-13T05:11:42;2.65;;;1.73;;
77359;SDS011;66426;51.454;7.266;2023-03-13T05:12:43;2.20;;;1.52;;
77359;SDS011;66426;51.454;7.266;2023-03-13T05:13:45;2.15;;;1.40;;
77359;SDS011;66426;51.454;7.266;2023-03-13T05:14:45;4.15;;;1.70;;
77359;SDS011;66426;51.454;7.266;2023-03-13T05:15:46;2.75;;;1.80;;
77359;SDS011;66426;51.454;7.266;2023-03-13T05:16:47;2.08;;;1.50;;
77359;SDS011;66426;51.454;7.266;2023-03-13T05:17:48;2.25;;;1.83;;
77359;SDS011;66426;51.454;7.266;2023-03-13T05:18:48;2.42;;;1.70;;
77359;SDS011;66426;51.454;7.266;2023-03-13T05:19:49;2.50;;;1.65;;
77359;SDS011;66426;51.454;7.266;2023-03-13T05:20:50;1.35;;;1.25;;
77359;SDS011;66426;51.454;7.266;2023-03-13T05:21:50;3.00;;;1.70;;
77359;SDS011;66426;51.454;7.266;2023-03-13T05:22:51;1.60;;;1.48;;
77359;SDS011;66426;51.454;7.266;2023-03-13T05:23:52;3.10;;;1.42;;
77359;SDS011;66426;51.454;7.266;2023-03-13T05:24:53;1.98;;;1.58;;
77359;SDS011;66426;51.454;7.266;2023-03-13T05:25:53;1.98;;;1.42;;
77359;SDS011;66426;51.454;7.266;2023-03-13T05:26:54;2.08;;;1.50;;
77359;SDS011;66426;51.454;7.266;2023-03-13T05:27:55;5.15;;;1.98;;
77359;SDS011;66426;51.454;7.266;2023-03-13T05:28:57;4.32;;;1.90;;
77359;SDS011;66426;51.454;7.266;2023-03-13T05:29:57;2.53;;;1.60;;
77359;SDS011;66426;51.454;7.266;2023-03-13T05:30:58;2.30;;;1.67;;
77359;SDS011;66426;51.454;7.266;2023-03-13T05:31:59;2.25;;;1.45;;
77359;SDS011;66426;51.454;7.266;2023-03-13T05:33:00;2.28;;;1.75;;
77359;SDS011;66426;51.454;7.266;2023-03-13T05:34:00;2.30;;;1.52;;
77359;SDS011;66426;51.454;7.266;2023-03-13T05:35:01;2.38;;;1.58;;
77359;SDS011;66426;51.454;7.266;2023-03-13T05:36:02;2.78;;;1.50;;
77359;SDS011;66426;51.454;7.266;2023-03-13T05:37:02;2.25;;;1.50;;
77359;SDS011;66426;51.454;7.266;2023-03-13T05:38:03;4.07;;;1.85;;
77359;SDS011;66426;51.454;7.266;2023-03-13T05:39:04;1.85;;;1.50;;
77359;SDS011;66426;51.454;7.266;2023-03-13T05:40:05;1.92;;;1.48;;
77359;SDS011;66426;51.454;7.266;2023-03-13T05:41:06;3.25;;;1.65;;
77359;SDS011;66426;51.454;7.266;2023-03-13T05:42:06;2.08;;;1.67;;
77359;SDS011;66426;51.454;7.266;2023-03-13T05:43:07;3.75;;;1.33;;
77359;SDS011;66426;51.454;7.266;2023-03-13T05:44:09;3.10;;;1.70;;
77359;SDS011;66426;51.454;7.266;2023-03-13T05:45:10;4.00;;;1.60;;
77359;SDS011;66426;51.454;7.266;2023-03-13T05:46:11;2.35;;;1.65;;
77359;SDS011;66426;51.454;7.266;2023-03-13T05:47:12;2.80;;;1.67;;
77359;SDS011;66426;51.454;7.266;2023-03-13T05:48:12;3.45;;;1.60;;
77359;SDS011;66426;51.454;7.266;2023-03-13T05:49:13;3.03;;;1.92;;
77359;SDS011;66426;51.454;7.266;2023-03-13T05:50:14;2.55;;;1.80;;
77359;SDS011;66426;51.454;7.266;2023-03-13T05:51:15;2.55;;;1.77;;
77359;SDS011;66426;51.454;7.266;2023-03-13T05:52:15;2.30;;;1.67;;
77359;SDS011;66426;51.454;7.266;2023-03-13T05:53:16;3.22;;;1.40;;
77359;SDS011;66426;51.454;7.266;2023-03-13T05:54:17;3.47;;;1.70;;
77359;SDS011;66426;51.454;7.266;2023-03-13T05:55:18;2.95;;;1.60;;
77359;SDS011;66426;51.454;7.266;2023-03-13T05:56:19;3.78;;;1.80;;
77359;SDS011;66426;51.454;7.266;2023-03-13T05:57:19;4.30;;;1.95;;
77359;SDS011;66426;51.454;7.266;2023-03-13T05:58:20;2.83;;;1.70;;
77359;SDS011;66426;51.454;7.266;2023-03-13T05:59:22;5.45;;;1.83;;
77359;SDS011;66426;51.454;7.266;2023-03-13T06:00:23;3.55;;;1.80;;
77359;SDS011;66426;51.454;7.266;2023-03-13T06:01:24;4.00;;;2.28;;
77359;SDS011;66426;51.454;7.266;2023-03-13T06:02:24;2.47;;;1.90;;
77359;SDS011;66426;51.454;7.266;2023-03-13T06:03:25;2.28;;;1.58;;
77359;SDS011;66426;51.454;7.266;2023-03-13T06:04:26;3.78;;;1.90;;
77359;SDS011;66426;51.454;7.266;2023-03-13T06:05:26;3.60;;;1.70;;
77359;SDS011;66426;51.454;7.266;2023-03-13T06:06:27;2.05;;;1.70;;
77359;SDS011;66426;51.454;7.266;2023-03-13T06:07:28;3.60;;;2.10;;